sensor_id;sensor_type;location;lat;lon;timestamp;temperature;humidity
31369;DHT22;18004;48.416;10.066;2023-03-05T00:01:37;1.30;93.40
31369;DHT22;18004;48.416;10.066;2023-03-05T00:04:04;1.30;93.60
31369;DHT22;18004;48.416;10.066;2023-03-05T00:06:31;1.30;93.50
31369;DHT22;18004;48.416;10.066;2023-03-05T00:08:56;1.30;93.40
31369;DHT22;18004;48.416;10.066;2023-03-05T00:11:23;1.30;93.80
31369;DHT22;18004;48.416;10.066;2023-03-05T00:13:53;1.30;93.60
31369;DHT22;18004;48.416;10.066;2023-03-05T00:16:19;1.30;93.90
31369;DHT22;18004;48.416;10.066;2023-03-05T00:18:45;1.30;93.90
31369;DHT22;18004;48.416;10.066;2023-03-05T00:21:26;1.30;94.10
31369;DHT22;18004;48.416;10.066;2023-03-05T00:23:53;1.20;94.20
31369;DHT22;18004;48.416;10.066;2023-03-05T00:26:22;1.30;94.30
31369;DHT22;18004;48.416;10.066;2023-03-05T00:28:47;1.20;94.00
31369;DHT22;18004;48.416;10.066;2023-03-05T00:31:15;1.20;94.10
31369;DHT22;18004;48.416;10.066;2023-03-05T00:33:42;1.30;94.10
31369;DHT22;18004;48.416;10.066;2023-03-05T00:36:08;1.20;94.00
31369;DHT22;18004;48.416;10.066;2023-03-05T00:38:34;1.20;94.00
31369;DHT22;18004;48.416;10.066;2023-03-05T00:41:00;1.20;94.20
31369;DHT22;18004;48.416;10.066;2023-03-05T00:43:27;1.20;94.40
31369;DHT22;18004;48.416;10.066;2023-03-05T00:45:52;1.10;94.50
31369;DHT22;18004;48.416;10.066;2023-03-05T00:48:18;1.10;94.90
31369;DHT22;18004;48.416;10.066;2023-03-05T00:50:44;1.10;94.90
31369;DHT22;18004;48.416;10.066;2023-03-05T00:53:10;1.10;94.70
31369;DHT22;18004;48.416;10.066;2023-03-05T00:55:36;1.10;94.70
31369;DHT22;18004;48.416;10.066;2023-03-05T00:58:02;1.10;94.70
31369;DHT22;18004;48.416;10.066;2023-03-05T01:00:27;1.10;95.00
31369;DHT22;18004;48.416;10.066;2023-03-05T01:02:53;1.10;95.30
31369;DHT22;18004;48.416;10.066;2023-03-05T01:05:19;1.10;95.30
31369;DHT22;18004;48.416;10.066;2023-03-05T01:07:45;1.10;95.40
31369;DHT22;18004;48.416;10.066;2023-03-05T01:10:12;1.00;95.60
31369;DHT22;18004;48.416;10.066;2023-03-05T01:12:38;1.10;95.80
31369;DHT22;18004;48.416;10.066;2023-03-05T01:15:04;1.10;96.00
31369;DHT22;18004;48.416;10.066;2023-03-05T01:17:31;1.10;95.40
31369;DHT22;18004;48.416;10.066;2023-03-05T01:19:56;1.00;95.30
31369;DHT22;18004;48.416;10.066;2023-03-05T01:22:22;1.10;95.40
31369;DHT22;18004;48.416;10.066;2023-03-05T01:24:48;1.00;95.40
31369;DHT22;18004;48.416;10.066;2023-03-05T01:27:14;1.00;95.80
31369;DHT22;18004;48.416;10.066;2023-03-05T01:29:39;1.00;96.00
31369;DHT22;18004;48.416;10.066;2023-03-05T01:32:05;1.00;96.10
31369;DHT22;18004;48.416;10.066;2023-03-05T01:34:31;1.00;96.10
31369;DHT22;18004;48.416;10.066;2023-03-05T01:36:57;0.90;96.50
31369;DHT22;18004;48.416;10.066;2023-03-05T01:39:23;1.00;96.80
31369;DHT22;18004;48.416;10.066;2023-03-05T01:41:48;1.00;96.40
31369;DHT22;18004;48.416;10.066;2023-03-05T01:44:23;1.00;96.50
31369;DHT22;18004;48.416;10.066;2023-03-05T01:46:49;1.00;96.70
31369;DHT22;18004;48.416;10.066;2023-03-05T01:49:35;1.00;96.80
31369;DHT22;18004;48.416;10.066;2023-03-05T01:52:13;1.00;96.80
31369;DHT22;18004;48.416;10.066;2023-03-05T01:54:45;1.00;96.60
31369;DHT22;18004;48.416;10.066;2023-03-05T01:57:17;1.00;96.50
31369;DHT22;18004;48.416;10.066;2023-03-05T01:59:49;1.00;96.40
31369;DHT22;18004;48.416;10.066;2023-03-05T02:02:15;1.00;96.40
31369;DHT22;18004;48.416;10.066;2023-03-05T02:04:54;1.00;96.40
31369;DHT22;18004;48.416;10.066;2023-03-05T02:07:20;1.00;96.50
31369;DHT22;18004;48.416;10.066;2023-03-05T02:09:46;0.90;97.30
31369;DHT22;18004;48.416;10.066;2023-03-05T02:12:13;0.90;97.60
31369;DHT22;18004;48.416;10.066;2023-03-05T02:14:40;1.00;97.70
31369;DHT22;18004;48.416;10.066;2023-03-05T02:17:08;0.90;97.90
31369;DHT22;18004;48.416;10.066;2023-03-05T02:19:56;0.90;97.30
31369;DHT22;18004;48.416;10.066;2023-03-05T02:22:26;1.00;97.20
31369;DHT22;18004;48.416;10.066;2023-03-05T02:24:52;0.90;96.70
31369;DHT22;18004;48.416;10.066;2023-03-05T02:27:21;0.90;96.60
31369;DHT22;18004;48.416;10.066;2023-03-05T02:29:48;0.90;96.70
31369;DHT22;18004;48.416;10.066;2023-03-05T02:32:14;1.00;96.50
31369;DHT22;18004;48.416;10.066;2023-03-05T02:34:40;1.00;96.60
31369;DHT22;18004;48.416;10.066;2023-03-05T02:37:06;1.00;97.00
31369;DHT22;18004;48.416;10.066;2023-03-05T02:39:33;0.90;97.10
31369;DHT22;18004;48.416;10.066;2023-03-05T02:41:59;0.90;97.00
31369;DHT22;18004;48.416;10.066;2023-03-05T02:44:25;0.90;97.20
31369;DHT22;18004;48.416;10.066;2023-03-05T02:46:51;0.90;97.00
31369;DHT22;18004;48.416;10.066;2023-03-05T02:49:17;0.90;97.10
31369;DHT22;18004;48.416;10.066;2023-03-05T02:51:43;0.90;97.70
31369;DHT22;18004;48.416;10.066;2023-03-05T02:54:09;0.90;97.70
31369;DHT22;18004;48.416;10.066;2023-03-05T02:56:35;0.90;97.60
31369;DHT22;18004;48.416;10.066;2023-03-05T02:59:02;0.90;98.00
31369;DHT22;18004;48.416;10.066;2023-03-05T03:01:28;0.80;98.10
31369;DHT22;18004;48.416;10.066;2023-03-05T03:03:54;0.90;98.20
31369;DHT22;18004;48.416;10.066;2023-03-05T03:06:20;0.90;98.20
31369;DHT22;18004;48.416;10.066;2023-03-05T03:08:46;0.90;97.80
31369;DHT22;18004;48.416;10.066;2023-03-05T03:11:12;0.90;97.50
31369;DHT22;18004;48.416;10.066;2023-03-05T03:13:39;0.90;97.70
31369;DHT22;18004;48.416;10.066;2023-03-05T03:16:08;0.90;97.70
31369;DHT22;18004;48.416;10.066;2023-03-05T03:18:34;0.90;97.70
31369;DHT22;18004;48.416;10.066;2023-03-05T03:20:59;0.90;97.60
31369;DHT22;18004;48.416;10.066;2023-03-05T03:23:25;0.90;97.80
31369;DHT22;18004;48.416;10.066;2023-03-05T03:25:51;0.90;98.20
31369;DHT22;18004;48.416;10.066;2023-03-05T03:28:17;0.90;98.10
31369;DHT22;18004;48.416;10.066;2023-03-05T03:30:43;0.90;98.20
31369;DHT22;18004;48.416;10.066;2023-03-05T03:33:09;0.90;98.30
31369;DHT22;18004;48.416;10.066;2023-03-05T03:35:35;0.80;99.00
31369;DHT22;18004;48.416;10.066;2023-03-05T03:38:01;0.90;99.40
31369;DHT22;18004;48.416;10.066;2023-03-05T03:40:26;0.90;99.30
31369;DHT22;18004;48.416;10.066;2023-03-05T03:42:52;0.90;99.70
31369;DHT22;18004;48.416;10.066;2023-03-05T03:45:19;0.90;99.40
31369;DHT22;18004;48.416;10.066;2023-03-05T03:47:50;0.90;99.70
31369;DHT22;18004;48.416;10.066;2023-03-05T03:50:17;0.90;99.90
31369;DHT22;18004;48.416;10.066;2023-03-05T03:52:43;0.90;99.90
31369;DHT22;18004;48.416;10.066;2023-03-05T03:55:09;0.90;99.90
31369;DHT22;18004;48.416;10.066;2023-03-05T03:57:35;1.00;99.90
31369;DHT22;18004;48.416;10.066;2023-03-05T04:00:02;0.90;99.90
31369;DHT22;18004;48.416;10.066;2023-03-05T04:02:31;0.90;99.90
31369;DHT22;18004;48.416;10.066;2023-03-05T04:04:57;0.90;99.90
31369;DHT22;18004;48.416;10.066;2023-03-05T04:07:23;0.90;99.90
31369;DHT22;18004;48.416;10.066;2023-03-05T04:09:49;0.90;99.90
31369;DHT22;18004;48.416;10.066;2023-03-05T04:12:15;1.00;99.90
31369;DHT22;18004;48.416;10.066;2023-03-05T04:14:44;1.00;99.90
31369;DHT22;18004;48.416;10.066;2023-03-05T04:17:11;1.00;99.90
31369;DHT22;18004;48.416;10.066;2023-03-05T04:19:36;1.00;99.90
31369;DHT22;18004;48.416;10.066;2023-03-05T04:22:02;1.00;99.90
31369;DHT22;18004;48.416;10.066;2023-03-05T04:24:28;0.90;99.90
31369;DHT22;18004;48.416;10.066;2023-03-05T04:26:54;0.90;99.90
31369;DHT22;18004;48.416;10.066;2023-03-05T04:29:20;0.90;99.90
31369;DHT22;18004;48.416;10.066;2023-03-05T04:31:45;0.90;99.90
31369;DHT22;18004;48.416;10.066;2023-03-05T04:34:11;0.90;99.90
31369;DHT22;18004;48.416;10.066;2023-03-05T04:36:37;0.90;99.90
31369;DHT22;18004;48.416;10.066;2023-03-05T04:39:03;1.00;99.90
31369;DHT22;18004;48.416;10.066;2023-03-05T04:41:29;0.90;99.90
31369;DHT22;18004;48.416;10.066;2023-03-05T04:43:55;0.90;99.90
31369;DHT22;18004;48.416;10.066;2023-03-05T04:46:20;0.90;99.90
31369;DHT22;18004;48.416;10.066;2023-03-05T04:48:46;0.90;99.90
31369;DHT22;18004;48.416;10.066;2023-03-05T04:51:12;1.00;99.90
31369;DHT22;18004;48.416;10.066;2023-03-05T04:53:38;1.00;99.90
31369;DHT22;18004;48.416;10.066;2023-03-05T04:56:04;1.00;99.90
31369;DHT22;18004;48.416;10.066;2023-03-05T04:58:30;1.00;99.90
31369;DHT22;18004;48.416;10.066;2023-03-05T05:01:03;1.00;99.90
31369;DHT22;18004;48.416;10.066;2023-03-05T05:03:29;1.00;99.90
31369;DHT22;18004;48.416;10.066;2023-03-05T05:05:57;1.00;99.90
31369;DHT22;18004;48.416;10.066;2023-03-05T05:08:23;1.00;99.90
31369;DHT22;18004;48.416;10.066;2023-03-05T05:11:01;1.00;99.90
31369;DHT22;18004;48.416;10.066;2023-03-05T05:13:27;1.00;99.90
31369;DHT22;18004;48.416;10.066;2023-03-05T05:15:53;1.00;99.90
31369;DHT22;18004;48.416;10.066;2023-03-05T05:18:19;1.00;99.90
31369;DHT22;18004;48.416;10.066;2023-03-05T05:20:46;1.00;99.90
31369;DHT22;18004;48.416;10.066;2023-03-05T05:23:11;1.00;99.90
31369;DHT22;18004;48.416;10.066;2023-03-05T05:25:37;0.90;99.90
31369;DHT22;18004;48.416;10.066;2023-03-05T05:28:03;1.00;99.90
31369;DHT22;18004;48.416;10.066;2023-03-05T05:30:29;1.00;99.90
31369;DHT22;18004;48.416;10.066;2023-03-05T05:32:55;0.90;99.90
31369;DHT22;18004;48.416;10.066;2023-03-05T05:35:21;1.00;99.90
31369;DHT22;18004;48.416;10.066;2023-03-05T05:37:47;1.00;99.90
31369;DHT22;18004;48.416;10.066;2023-03-05T05:40:13;0.90;99.90
31369;DHT22;18004;48.416;10.066;2023-03-05T05:42:39;0.90;99.90
31369;DHT22;18004;48.416;10.066;2023-03-05T05:45:05;1.00;99.90
31369;DHT22;18004;48.416;10.066;2023-03-05T05:47:31;1.00;99.90
31369;DHT22;18004;48.416;10.066;2023-03-05T05:49:57;1.00;99.90
31369;DHT22;18004;48.416;10.066;2023-03-05T05:52:23;1.00;99.90
31369;DHT22;18004;48.416;10.066;2023-03-05T05:54:48;0.90;99.90
31369;DHT22;18004;48.416;10.066;2023-03-05T05:57:15;0.90;99.90
31369;DHT22;18004;48.416;10.066;2023-03-05T05:59:41;1.00;99.90
31369;DHT22;18004;48.416;10.066;2023-03-05T06:02:06;1.00;99.90
31369;DHT22;18004;48.416;10.066;2023-03-05T06:04:34;1.00;99.90
31369;DHT22;18004;48.416;10.066;2023-03-05T06:07:00;1.00;99.90
31369;DHT22;18004;48.416;10.066;2023-03-05T06:09:26;1.00;99.90
31369;DHT22;18004;48.416;10.066;2023-03-05T06:11:52;1.00;99.90
31369;DHT22;18004;48.416;10.066;2023-03-05T06:14:17;1.00;99.90
31369;DHT22;18004;48.416;10.066;2023-03-05T06:16:43;1.00;99.90
31369;DHT22;18004;48.416;10.066;2023-03-05T06:19:13;1.00;99.90
31369;DHT22;18004;48.416;10.066;2023-03-05T06:21:39;1.00;99.90
31369;DHT22;18004;48.416;10.066;2023-03-05T06:24:06;1.00;99.90
31369;DHT22;18004;48.416;10.066;2023-03-05T06:26:32;1.00;99.90
31369;DHT22;18004;48.416;10.066;2023-03-05T06:28:57;1.00;99.90
31369;DHT22;18004;48.416;10.066;2023-03-05T06:31:25;1.00;99.90
31369;DHT22;18004;48.416;10.066;2023-03-05T06:33:55;0.90;99.90
31369;DHT22;18004;48.416;10.066;2023-03-05T06:36:23;1.00;99.90
31369;DHT22;18004;48.416;10.066;2023-03-05T06:38:50;1.00;99.90
31369;DHT22;18004;48.416;10.066;2023-03-05T06:41:18;1.00;99.90
31369;DHT22;18004;48.416;10.066;2023-03-05T06:43:46;1.00;99.90
31369;DHT22;18004;48.416;10.066;2023-03-05T06:46:15;1.00;99.90
31369;DHT22;18004;48.416;10.066;2023-03-05T06:48:41;1.00;99.90
31369;DHT22;18004;48.416;10.066;2023-03-05T06:51:14;1.10;99.90
31369;DHT22;18004;48.416;10.066;2023-03-05T06:53:41;1.10;99.90
31369;DHT22;18004;48.416;10.066;2023-03-05T06:56:07;1.20;99.90
31369;DHT22;18004;48.416;10.066;2023-03-05T06:58:34;1.20;99.90
31369;DHT22;18004;48.416;10.066;2023-03-05T07:01:00;1.20;99.90
31369;DHT22;18004;48.416;10.066;2023-03-05T07:03:25;1.20;99.90
31369;DHT22;18004;48.416;10.066;2023-03-05T07:05:51;1.20;99.90
31369;DHT22;18004;48.416;10.066;2023-03-05T07:08:17;1.20;99.90
31369;DHT22;18004;48.416;10.066;2023-03-05T07:10:43;1.30;99.90
31369;DHT22;18004;48.416;10.066;2023-03-05T07:13:09;1.30;99.90
31369;DHT22;18004;48.416;10.066;2023-03-05T07:15:38;1.30;99.90
31369;DHT22;18004;48.416;10.066;2023-03-05T07:18:04;1.30;99.90
31369;DHT22;18004;48.416;10.066;2023-03-05T07:20:33;1.30;99.90
31369;DHT22;18004;48.416;10.066;2023-03-05T07:22:59;1.30;99.90
31369;DHT22;18004;48.416;10.066;2023-03-05T07:25:25;1.30;99.90
31369;DHT22;18004;48.416;10.066;2023-03-05T07:27:50;1.30;99.90
31369;DHT22;18004;48.416;10.066;2023-03-05T07:30:16;1.30;99.90
31369;DHT22;18004;48.416;10.066;2023-03-05T07:32:42;1.30;99.90
31369;DHT22;18004;48.416;10.066;2023-03-05T07:35:08;1.30;99.90
31369;DHT22;18004;48.416;10.066;2023-03-05T07:37:34;1.30;99.90
31369;DHT22;18004;48.416;10.066;2023-03-05T07:40:00;1.40;99.90
31369;DHT22;18004;48.416;10.066;2023-03-05T07:42:26;1.40;99.90
31369;DHT22;18004;48.416;10.066;2023-03-05T07:44:51;1.40;99.90
31369;DHT22;18004;48.416;10.066;2023-03-05T07:47:17;1.30;99.90
31369;DHT22;18004;48.416;10.066;2023-03-05T07:49:43;1.40;99.90
31369;DHT22;18004;48.416;10.066;2023-03-05T07:52:09;1.40;99.90
31369;DHT22;18004;48.416;10.066;2023-03-05T07:54:38;1.50;99.90
31369;DHT22;18004;48.416;10.066;2023-03-05T07:57:04;1.50;99.90
31369;DHT22;18004;48.416;10.066;2023-03-05T07:59:30;1.50;99.90
31369;DHT22;18004;48.416;10.066;2023-03-05T08:01:56;1.50;99.90
31369;DHT22;18004;48.416;10.066;2023-03-05T08:04:22;1.50;99.90
31369;DHT22;18004;48.416;10.066;2023-03-05T08:06:47;1.50;99.90
31369;DHT22;18004;48.416;10.066;2023-03-05T08:09:15;1.60;99.90
31369;DHT22;18004;48.416;10.066;2023-03-05T08:11:41;1.60;99.90
31369;DHT22;18004;48.416;10.066;2023-03-05T08:14:07;1.60;99.90
31369;DHT22;18004;48.416;10.066;2023-03-05T08:16:34;1.70;99.90
31369;DHT22;18004;48.416;10.066;2023-03-05T08:19:00;1.70;99.90
31369;DHT22;18004;48.416;10.066;2023-03-05T08:21:28;1.60;99.90
31369;DHT22;18004;48.416;10.066;2023-03-05T08:23:55;1.60;99.90
31369;DHT22;18004;48.416;10.066;2023-03-05T08:26:23;1.60;99.90
31369;DHT22;18004;48.416;10.066;2023-03-05T08:28:50;1.60;99.90
31369;DHT22;18004;48.416;10.066;2023-03-05T08:31:18;1.70;99.90
31369;DHT22;18004;48.416;10.066;2023-03-05T08:33:46;1.70;99.90
31369;DHT22;18004;48.416;10.066;2023-03-05T08:36:12;1.80;99.90
31369;DHT22;18004;48.416;10.066;2023-03-05T08:38:38;1.80;99.90
31369;DHT22;18004;48.416;10.066;2023-03-05T08:41:04;1.90;99.90
31369;DHT22;18004;48.416;10.066;2023-03-05T08:43:30;1.90;99.90
31369;DHT22;18004;48.416;10.066;2023-03-05T08:45:56;1.90;99.90
31369;DHT22;18004;48.416;10.066;2023-03-05T08:48:23;2.00;99.90
31369;DHT22;18004;48.416;10.066;2023-03-05T08:50:49;2.00;99.90
31369;DHT22;18004;48.416;10.066;2023-03-05T08:53:15;2.00;99.90
31369;DHT22;18004;48.416;10.066;2023-03-05T08:55:41;2.00;99.90
31369;DHT22;18004;48.416;10.066;2023-03-05T08:58:06;2.10;99.90
31369;DHT22;18004;48.416;10.066;2023-03-05T09:00:33;2.10;99.90
31369;DHT22;18004;48.416;10.066;2023-03-05T09:02:58;2.10;99.90
31369;DHT22;18004;48.416;10.066;2023-03-05T09:05:24;2.10;99.90
31369;DHT22;18004;48.416;10.066;2023-03-05T09:07:50;2.20;99.90
31369;DHT22;18004;48.416;10.066;2023-03-05T09:10:16;2.20;99.90
31369;DHT22;18004;48.416;10.066;2023-03-05T09:12:42;2.20;99.90
31369;DHT22;18004;48.416;10.066;2023-03-05T09:15:10;2.30;99.90
31369;DHT22;18004;48.416;10.066;2023-03-05T09:17:37;2.30;99.90
31369;DHT22;18004;48.416;10.066;2023-03-05T09:20:05;2.30;99.90
31369;DHT22;18004;48.416;10.066;2023-03-05T09:22:32;2.40;99.90
31369;DHT22;18004;48.416;10.066;2023-03-05T09:24:57;2.40;99.90
31369;DHT22;18004;48.416;10.066;2023-03-05T09:27:23;2.50;99.90
31369;DHT22;18004;48.416;10.066;2023-03-05T09:29:49;2.50;99.90
31369;DHT22;18004;48.416;10.066;2023-03-05T09:32:16;2.60;99.90
31369;DHT22;18004;48.416;10.066;2023-03-05T09:34:42;2.60;99.90
31369;DHT22;18004;48.416;10.066;2023-03-05T09:37:08;2.70;99.90
31369;DHT22;18004;48.416;10.066;2023-03-05T09:39:34;2.70;99.70
31369;DHT22;18004;48.416;10.066;2023-03-05T09:47:30;2.90;99.10
31369;DHT22;18004;48.416;10.066;2023-03-05T09:50:03;3.00;98.80
31369;DHT22;18004;48.416;10.066;2023-03-05T09:52:44;3.10;98.90
31369;DHT22;18004;48.416;10.066;2023-03-05T09:55:19;3.10;98.70
31369;DHT22;18004;48.416;10.066;2023-03-05T09:57:51;3.10;97.80
31369;DHT22;18004;48.416;10.066;2023-03-05T10:00:46;3.10;97.00
31369;DHT22;18004;48.416;10.066;2023-03-05T10:03:26;3.10;96.70
31369;DHT22;18004;48.416;10.066;2023-03-05T10:06:10;3.10;97.10
31369;DHT22;18004;48.416;10.066;2023-03-05T10:09:02;3.20;97.10
31369;DHT22;18004;48.416;10.066;2023-03-05T10:14:32;3.40;97.20
31369;DHT22;18004;48.416;10.066;2023-03-05T10:20:06;3.50;96.90
31369;DHT22;18004;48.416;10.066;2023-03-05T10:26:13;3.80;95.40
31369;DHT22;18004;48.416;10.066;2023-03-05T10:32:10;3.90;94.10
31369;DHT22;18004;48.416;10.066;2023-03-05T10:35:22;4.00;93.40
31369;DHT22;18004;48.416;10.066;2023-03-05T10:45:51;3.90;75.30
31369;DHT22;18004;48.416;10.066;2023-03-05T10:51:12;4.00;70.00
31369;DHT22;18004;48.416;10.066;2023-03-05T10:54:18;3.80;69.00
31369;DHT22;18004;48.416;10.066;2023-03-05T10:56:44;3.90;70.70
31369;DHT22;18004;48.416;10.066;2023-03-05T10:59:10;4.00;68.80
31369;DHT22;18004;48.416;10.066;2023-03-05T11:01:36;3.90;66.60
31369;DHT22;18004;48.416;10.066;2023-03-05T11:04:25;3.90;65.50
31369;DHT22;18004;48.416;10.066;2023-03-05T11:06:51;3.90;65.30
31369;DHT22;18004;48.416;10.066;2023-03-05T11:09:27;4.00;64.40
31369;DHT22;18004;48.416;10.066;2023-03-05T11:14:41;4.00;61.10
31369;DHT22;18004;48.416;10.066;2023-03-05T11:17:24;3.90;61.60
31369;DHT22;18004;48.416;10.066;2023-03-05T11:19:52;4.00;60.00
31369;DHT22;18004;48.416;10.066;2023-03-05T11:22:21;4.00;60.90
31369;DHT22;18004;48.416;10.066;2023-03-05T11:25:15;4.00;62.10
31369;DHT22;18004;48.416;10.066;2023-03-05T11:27:53;4.10;61.20
31369;DHT22;18004;48.416;10.066;2023-03-05T11:33:14;4.20;60.70
31369;DHT22;18004;48.416;10.066;2023-03-05T11:35:41;4.20;58.50
31369;DHT22;18004;48.416;10.066;2023-03-05T11:40:41;4.20;60.40
31369;DHT22;18004;48.416;10.066;2023-03-05T11:43:14;4.30;59.80
31369;DHT22;18004;48.416;10.066;2023-03-05T11:45:41;4.40;58.50
31369;DHT22;18004;48.416;10.066;2023-03-05T11:48:11;4.40;57.40
31369;DHT22;18004;48.416;10.066;2023-03-05T11:50:40;4.40;57.00
31369;DHT22;18004;48.416;10.066;2023-03-05T11:53:17;4.30;53.70
31369;DHT22;18004;48.416;10.066;2023-03-05T11:55:53;4.30;52.10
31369;DHT22;18004;48.416;10.066;2023-03-05T11:58:52;4.30;53.00
31369;DHT22;18004;48.416;10.066;2023-03-05T12:01:28;4.30;53.70
31369;DHT22;18004;48.416;10.066;2023-03-05T12:03:55;4.30;56.40
31369;DHT22;18004;48.416;10.066;2023-03-05T12:06:34;4.30;57.00
31369;DHT22;18004;48.416;10.066;2023-03-05T12:09:08;4.20;56.20
31369;DHT22;18004;48.416;10.066;2023-03-05T12:11:38;4.30;58.10
31369;DHT22;18004;48.416;10.066;2023-03-05T12:14:16;4.30;56.20
31369;DHT22;18004;48.416;10.066;2023-03-05T12:16:49;4.50;57.10
31369;DHT22;18004;48.416;10.066;2023-03-05T12:19:34;4.50;53.70
31369;DHT22;18004;48.416;10.066;2023-03-05T12:22:03;4.50;54.00
31369;DHT22;18004;48.416;10.066;2023-03-05T12:32:03;4.40;46.30
31369;DHT22;18004;48.416;10.066;2023-03-05T12:34:46;4.40;47.70
31369;DHT22;18004;48.416;10.066;2023-03-05T12:47:43;4.60;43.30
31369;DHT22;18004;48.416;10.066;2023-03-05T13:03:53;4.40;37.80
31369;DHT22;18004;48.416;10.066;2023-03-05T13:06:29;4.50;39.20
31369;DHT22;18004;48.416;10.066;2023-03-05T13:09:05;4.30;38.30
31369;DHT22;18004;48.416;10.066;2023-03-05T13:11:33;4.20;39.00
31369;DHT22;18004;48.416;10.066;2023-03-05T13:14:01;4.30;38.60
31369;DHT22;18004;48.416;10.066;2023-03-05T13:16:30;4.30;38.30
31369;DHT22;18004;48.416;10.066;2023-03-05T13:19:01;4.30;38.60
31369;DHT22;18004;48.416;10.066;2023-03-05T13:21:30;4.40;41.60
31369;DHT22;18004;48.416;10.066;2023-03-05T13:24:00;4.40;43.80
31369;DHT22;18004;48.416;10.066;2023-03-05T13:26:35;4.50;44.00
31369;DHT22;18004;48.416;10.066;2023-03-05T13:29:14;4.40;42.40
31369;DHT22;18004;48.416;10.066;2023-03-05T13:32:01;4.40;44.20
31369;DHT22;18004;48.416;10.066;2023-03-05T13:34:32;4.40;45.40
31369;DHT22;18004;48.416;10.066;2023-03-05T13:37:06;4.40;43.50
31369;DHT22;18004;48.416;10.066;2023-03-05T13:45:01;4.30;44.20
31369;DHT22;18004;48.416;10.066;2023-03-05T13:47:29;4.30;44.40
31369;DHT22;18004;48.416;10.066;2023-03-05T13:50:05;4.30;45.50
31369;DHT22;18004;48.416;10.066;2023-03-05T13:52:34;4.40;44.20
31369;DHT22;18004;48.416;10.066;2023-03-05T13:55:00;4.30;44.10
31369;DHT22;18004;48.416;10.066;2023-03-05T13:57:42;4.20;42.90
31369;DHT22;18004;48.416;10.066;2023-03-05T14:00:36;4.20;39.60
31369;DHT22;18004;48.416;10.066;2023-03-05T14:03:29;4.20;39.50
31369;DHT22;18004;48.416;10.066;2023-03-05T14:05:55;4.20;41.30
31369;DHT22;18004;48.416;10.066;2023-03-05T14:08:23;4.10;41.60
31369;DHT22;18004;48.416;10.066;2023-03-05T14:10:51;4.20;42.20
31369;DHT22;18004;48.416;10.066;2023-03-05T14:13:23;4.20;41.90
31369;DHT22;18004;48.416;10.066;2023-03-05T14:16:13;4.20;38.00
31369;DHT22;18004;48.416;10.066;2023-03-05T14:19:01;4.20;38.30
31369;DHT22;18004;48.416;10.066;2023-03-05T14:21:47;4.20;39.70
31369;DHT22;18004;48.416;10.066;2023-03-05T14:24:22;4.20;39.00
31369;DHT22;18004;48.416;10.066;2023-03-05T14:27:14;4.20;40.20
31369;DHT22;18004;48.416;10.066;2023-03-05T14:29:45;4.20;39.80
31369;DHT22;18004;48.416;10.066;2023-03-05T14:32:34;4.20;40.30
31369;DHT22;18004;48.416;10.066;2023-03-05T14:35:02;4.20;41.50
31369;DHT22;18004;48.416;10.066;2023-03-05T14:37:38;4.20;39.70
31369;DHT22;18004;48.416;10.066;2023-03-05T14:40:18;4.20;41.90
31369;DHT22;18004;48.416;10.066;2023-03-05T14:45:28;4.20;40.80
31369;DHT22;18004;48.416;10.066;2023-03-05T14:47:55;4.20;40.50
31369;DHT22;18004;48.416;10.066;2023-03-05T14:50:31;4.30;40.90
31369;DHT22;18004;48.416;10.066;2023-03-05T14:53:00;4.30;40.80
31369;DHT22;18004;48.416;10.066;2023-03-05T14:55:29;4.20;39.60
31369;DHT22;18004;48.416;10.066;2023-03-05T14:58:03;4.20;39.40
31369;DHT22;18004;48.416;10.066;2023-03-05T15:00:29;4.20;39.90
31369;DHT22;18004;48.416;10.066;2023-03-05T15:02:55;4.10;40.50
31369;DHT22;18004;48.416;10.066;2023-03-05T15:05:22;4.10;42.10
31369;DHT22;18004;48.416;10.066;2023-03-05T15:07:51;4.20;42.40
31369;DHT22;18004;48.416;10.066;2023-03-05T15:10:20;4.20;43.30
31369;DHT22;18004;48.416;10.066;2023-03-05T15:12:48;4.20;43.60
31369;DHT22;18004;48.416;10.066;2023-03-05T15:15:16;4.20;43.10
31369;DHT22;18004;48.416;10.066;2023-03-05T15:17:44;4.10;42.50
31369;DHT22;18004;48.416;10.066;2023-03-05T15:20:20;4.10;40.80
31369;DHT22;18004;48.416;10.066;2023-03-05T15:22:46;4.00;41.60
31369;DHT22;18004;48.416;10.066;2023-03-05T15:25:12;4.00;42.50
31369;DHT22;18004;48.416;10.066;2023-03-05T15:27:39;4.00;42.50
31369;DHT22;18004;48.416;10.066;2023-03-05T15:30:06;3.90;42.20
31369;DHT22;18004;48.416;10.066;2023-03-05T15:32:32;3.90;42.50
31369;DHT22;18004;48.416;10.066;2023-03-05T15:34:58;3.90;43.40
31369;DHT22;18004;48.416;10.066;2023-03-05T15:37:24;3.90;44.10
31369;DHT22;18004;48.416;10.066;2023-03-05T15:39:51;3.90;44.30
31369;DHT22;18004;48.416;10.066;2023-03-05T15:42:17;3.90;46.10
31369;DHT22;18004;48.416;10.066;2023-03-05T15:44:43;3.80;46.50
31369;DHT22;18004;48.416;10.066;2023-03-05T15:47:09;3.80;47.70
31369;DHT22;18004;48.416;10.066;2023-03-05T15:49:35;3.80;48.00
31369;DHT22;18004;48.416;10.066;2023-03-05T15:52:01;3.80;48.20
31369;DHT22;18004;48.416;10.066;2023-03-05T15:54:27;3.70;50.20
31369;DHT22;18004;48.416;10.066;2023-03-05T15:56:53;3.70;51.60
31369;DHT22;18004;48.416;10.066;2023-03-05T15:59:19;3.70;53.00
31369;DHT22;18004;48.416;10.066;2023-03-05T16:01:50;3.60;54.20
31369;DHT22;18004;48.416;10.066;2023-03-05T16:04:16;3.60;54.50
31369;DHT22;18004;48.416;10.066;2023-03-05T16:06:45;3.60;56.00
31369;DHT22;18004;48.416;10.066;2023-03-05T16:09:12;3.50;57.70
31369;DHT22;18004;48.416;10.066;2023-03-05T16:11:40;3.50;58.80
31369;DHT22;18004;48.416;10.066;2023-03-05T16:14:11;3.50;58.50
31369;DHT22;18004;48.416;10.066;2023-03-05T16:16:37;3.50;59.10
31369;DHT22;18004;48.416;10.066;2023-03-05T16:19:05;3.50;59.20
31369;DHT22;18004;48.416;10.066;2023-03-05T16:21:32;3.50;59.90
31369;DHT22;18004;48.416;10.066;2023-03-05T16:23:58;3.50;60.00
31369;DHT22;18004;48.416;10.066;2023-03-05T16:26:24;3.40;60.00
31369;DHT22;18004;48.416;10.066;2023-03-05T16:28:50;3.40;60.70
31369;DHT22;18004;48.416;10.066;2023-03-05T16:31:18;3.30;62.10
31369;DHT22;18004;48.416;10.066;2023-03-05T16:33:44;3.30;62.50
31369;DHT22;18004;48.416;10.066;2023-03-05T16:38:36;3.40;63.70
31369;DHT22;18004;48.416;10.066;2023-03-05T16:41:02;3.40;63.60
31369;DHT22;18004;48.416;10.066;2023-03-05T16:43:28;3.40;63.70
31369;DHT22;18004;48.416;10.066;2023-03-05T16:45:54;3.40;64.20
31369;DHT22;18004;48.416;10.066;2023-03-05T16:48:19;3.40;64.80
31369;DHT22;18004;48.416;10.066;2023-03-05T16:50:45;3.40;65.20
31369;DHT22;18004;48.416;10.066;2023-03-05T16:53:11;3.40;66.00
31369;DHT22;18004;48.416;10.066;2023-03-05T16:55:37;3.40;65.70
31369;DHT22;18004;48.416;10.066;2023-03-05T16:58:04;3.40;64.10
31369;DHT22;18004;48.416;10.066;2023-03-05T17:00:29;3.50;64.00